sensor_id;sensor_type;location;lat;lon;timestamp;temperature;humidity
7700;DHT22;3892;47.794;19.126;2022-12-18T00:01:00;6.60;34.00
7700;DHT22;3892;47.794;19.126;2022-12-18T00:03:33;6.70;34.00
7700;DHT22;3892;47.794;19.126;2022-12-18T00:06:00;6.60;33.80
7700;DHT22;3892;47.794;19.126;2022-12-18T00:08:28;6.70;33.80
7700;DHT22;3892;47.794;19.126;2022-12-18T00:10:55;6.60;33.80
7700;DHT22;3892;47.794;19.126;2022-12-18T00:13:22;6.70;34.10
7700;DHT22;3892;47.794;19.126;2022-12-18T00:15:48;6.70;33.90
7700;DHT22;3892;47.794;19.126;2022-12-18T00:18:15;6.60;33.80
7700;DHT22;3892;47.794;19.126;2022-12-18T00:20:44;6.60;33.60
7700;DHT22;3892;47.794;19.126;2022-12-18T00:23:11;6.60;33.80
7700;DHT22;3892;47.794;19.126;2022-12-18T00:25:38;6.60;33.80
7700;DHT22;3892;47.794;19.126;2022-12-18T00:28:05;6.60;33.70
7700;DHT22;3892;47.794;19.126;2022-12-18T00:30:32;6.60;33.80
7700;DHT22;3892;47.794;19.126;2022-12-18T00:32:59;6.60;33.70
7700;DHT22;3892;47.794;19.126;2022-12-18T00:35:26;6.60;33.70
7700;DHT22;3892;47.794;19.126;2022-12-18T00:37:54;6.60;33.80
7700;DHT22;3892;47.794;19.126;2022-12-18T00:40:22;6.60;33.70
7700;DHT22;3892;47.794;19.126;2022-12-18T00:42:49;6.70;33.70
7700;DHT22;3892;47.794;19.126;2022-12-18T00:45:21;6.70;33.60
7700;DHT22;3892;47.794;19.126;2022-12-18T00:47:48;6.70;33.60
7700;DHT22;3892;47.794;19.126;2022-12-18T00:50:16;6.70;33.60
7700;DHT22;3892;47.794;19.126;2022-12-18T00:52:43;6.70;33.50
7700;DHT22;3892;47.794;19.126;2022-12-18T00:55:12;6.70;33.60
7700;DHT22;3892;47.794;19.126;2022-12-18T00:57:39;6.70;33.70
7700;DHT22;3892;47.794;19.126;2022-12-18T01:00:08;6.80;33.80
7700;DHT22;3892;47.794;19.126;2022-12-18T01:02:35;6.70;33.70
7700;DHT22;3892;47.794;19.126;2022-12-18T01:05:03;6.80;33.70
7700;DHT22;3892;47.794;19.126;2022-12-18T01:07:30;6.70;33.60
7700;DHT22;3892;47.794;19.126;2022-12-18T01:09:57;6.70;33.50
7700;DHT22;3892;47.794;19.126;2022-12-18T01:12:25;6.70;33.50
7700;DHT22;3892;47.794;19.126;2022-12-18T01:14:52;6.70;33.50
7700;DHT22;3892;47.794;19.126;2022-12-18T01:17:20;6.70;33.50
7700;DHT22;3892;47.794;19.126;2022-12-18T01:19:47;6.70;33.60
7700;DHT22;3892;47.794;19.126;2022-12-18T01:22:14;6.60;33.90
7700;DHT22;3892;47.794;19.126;2022-12-18T01:24:41;6.60;33.90
7700;DHT22;3892;47.794;19.126;2022-12-18T01:27:08;6.60;33.80
7700;DHT22;3892;47.794;19.126;2022-12-18T01:29:37;6.60;33.90
7700;DHT22;3892;47.794;19.126;2022-12-18T01:32:04;6.60;33.90
7700;DHT22;3892;47.794;19.126;2022-12-18T01:34:31;6.60;34.00
7700;DHT22;3892;47.794;19.126;2022-12-18T01:37:03;6.60;34.00
7700;DHT22;3892;47.794;19.126;2022-12-18T01:39:31;6.60;33.90
7700;DHT22;3892;47.794;19.126;2022-12-18T01:41:58;6.60;33.90
7700;DHT22;3892;47.794;19.126;2022-12-18T01:44:56;6.60;33.80
7700;DHT22;3892;47.794;19.126;2022-12-18T01:47:27;6.60;33.90
7700;DHT22;3892;47.794;19.126;2022-12-18T01:49:56;6.60;33.90
7700;DHT22;3892;47.794;19.126;2022-12-18T01:52:24;6.60;34.00
7700;DHT22;3892;47.794;19.126;2022-12-18T01:54:52;6.60;34.00
7700;DHT22;3892;47.794;19.126;2022-12-18T01:57:20;6.60;34.00
7700;DHT22;3892;47.794;19.126;2022-12-18T01:59:50;6.50;33.90
7700;DHT22;3892;47.794;19.126;2022-12-18T02:02:20;6.50;33.80
7700;DHT22;3892;47.794;19.126;2022-12-18T02:04:47;6.50;33.70
7700;DHT22;3892;47.794;19.126;2022-12-18T02:07:20;6.50;33.60
7700;DHT22;3892;47.794;19.126;2022-12-18T02:09:54;6.50;33.60
7700;DHT22;3892;47.794;19.126;2022-12-18T02:12:27;6.50;33.50
7700;DHT22;3892;47.794;19.126;2022-12-18T02:15:02;6.50;33.60
7700;DHT22;3892;47.794;19.126;2022-12-18T02:17:43;6.50;33.80
7700;DHT22;3892;47.794;19.126;2022-12-18T02:20:15;6.30;33.70
7700;DHT22;3892;47.794;19.126;2022-12-18T02:22:53;6.50;33.90
7700;DHT22;3892;47.794;19.126;2022-12-18T02:25:36;6.40;33.90
7700;DHT22;3892;47.794;19.126;2022-12-18T02:28:09;6.40;33.90
7700;DHT22;3892;47.794;19.126;2022-12-18T02:30:39;6.40;33.80
7700;DHT22;3892;47.794;19.126;2022-12-18T02:33:09;6.40;33.60
7700;DHT22;3892;47.794;19.126;2022-12-18T02:35:40;6.30;33.60
7700;DHT22;3892;47.794;19.126;2022-12-18T02:38:08;6.20;33.70
7700;DHT22;3892;47.794;19.126;2022-12-18T02:40:38;6.30;33.90
7700;DHT22;3892;47.794;19.126;2022-12-18T02:43:09;6.30;34.10
7700;DHT22;3892;47.794;19.126;2022-12-18T02:45:46;6.30;34.10
7700;DHT22;3892;47.794;19.126;2022-12-18T02:48:14;6.30;34.00
7700;DHT22;3892;47.794;19.126;2022-12-18T02:50:46;6.30;34.10
7700;DHT22;3892;47.794;19.126;2022-12-18T02:53:18;6.30;34.00
7700;DHT22;3892;47.794;19.126;2022-12-18T02:55:56;6.30;34.00
7700;DHT22;3892;47.794;19.126;2022-12-18T02:58:32;6.30;34.00
7700;DHT22;3892;47.794;19.126;2022-12-18T03:01:10;6.30;33.90
7700;DHT22;3892;47.794;19.126;2022-12-18T03:03:43;6.20;33.70
7700;DHT22;3892;47.794;19.126;2022-12-18T03:06:18;6.20;33.60
7700;DHT22;3892;47.794;19.126;2022-12-18T03:08:52;6.20;33.70
7700;DHT22;3892;47.794;19.126;2022-12-18T03:11:23;6.20;33.90
7700;DHT22;3892;47.794;19.126;2022-12-18T03:14:07;6.20;33.70
7700;DHT22;3892;47.794;19.126;2022-12-18T03:16:36;6.20;33.70
7700;DHT22;3892;47.794;19.126;2022-12-18T03:19:08;6.20;33.60
7700;DHT22;3892;47.794;19.126;2022-12-18T03:21:42;6.20;34.10
7700;DHT22;3892;47.794;19.126;2022-12-18T03:24:11;6.10;33.40
7700;DHT22;3892;47.794;19.126;2022-12-18T03:26:41;6.10;33.40
7700;DHT22;3892;47.794;19.126;2022-12-18T03:29:17;6.10;33.50
7700;DHT22;3892;47.794;19.126;2022-12-18T03:31:51;6.10;33.50
7700;DHT22;3892;47.794;19.126;2022-12-18T03:34:23;6.10;33.50
7700;DHT22;3892;47.794;19.126;2022-12-18T03:36:53;6.10;34.10
7700;DHT22;3892;47.794;19.126;2022-12-18T03:39:23;6.00;33.50
7700;DHT22;3892;47.794;19.126;2022-12-18T03:41:59;6.10;33.60
7700;DHT22;3892;47.794;19.126;2022-12-18T03:44:47;6.00;33.50
7700;DHT22;3892;47.794;19.126;2022-12-18T03:47:24;6.00;33.50
7700;DHT22;3892;47.794;19.126;2022-12-18T03:49:59;6.00;33.60
7700;DHT22;3892;47.794;19.126;2022-12-18T03:52:36;6.00;33.70
7700;DHT22;3892;47.794;19.126;2022-12-18T03:55:09;6.00;33.80
7700;DHT22;3892;47.794;19.126;2022-12-18T03:57:37;6.00;33.90
7700;DHT22;3892;47.794;19.126;2022-12-18T04:00:09;6.00;33.80
7700;DHT22;3892;47.794;19.126;2022-12-18T04:02:43;6.00;33.70
7700;DHT22;3892;47.794;19.126;2022-12-18T04:05:14;6.00;33.60
7700;DHT22;3892;47.794;19.126;2022-12-18T04:07:45;6.00;33.50
7700;DHT22;3892;47.794;19.126;2022-12-18T04:10:15;6.00;33.30
7700;DHT22;3892;47.794;19.126;2022-12-18T04:12:44;6.00;33.20
7700;DHT22;3892;47.794;19.126;2022-12-18T04:15:14;5.90;33.00
7700;DHT22;3892;47.794;19.126;2022-12-18T04:17:47;5.90;33.10
7700;DHT22;3892;47.794;19.126;2022-12-18T04:20:17;5.90;33.20
7700;DHT22;3892;47.794;19.126;2022-12-18T04:22:45;5.90;33.30
7700;DHT22;3892;47.794;19.126;2022-12-18T04:25:13;5.90;33.20
7700;DHT22;3892;47.794;19.126;2022-12-18T04:27:52;5.90;33.20
7700;DHT22;3892;47.794;19.126;2022-12-18T04:30:21;5.90;33.10
7700;DHT22;3892;47.794;19.126;2022-12-18T04:32:48;5.90;33.10
7700;DHT22;3892;47.794;19.126;2022-12-18T04:35:16;5.80;33.00
7700;DHT22;3892;47.794;19.126;2022-12-18T04:37:43;5.80;33.00
7700;DHT22;3892;47.794;19.126;2022-12-18T04:40:12;5.80;33.10
7700;DHT22;3892;47.794;19.126;2022-12-18T04:42:42;5.80;33.20
7700;DHT22;3892;47.794;19.126;2022-12-18T04:45:10;5.80;33.00
7700;DHT22;3892;47.794;19.126;2022-12-18T04:47:38;5.80;33.10
7700;DHT22;3892;47.794;19.126;2022-12-18T04:50:06;5.80;33.10
7700;DHT22;3892;47.794;19.126;2022-12-18T04:52:33;5.80;33.20
7700;DHT22;3892;47.794;19.126;2022-12-18T04:55:00;5.80;33.30
7700;DHT22;3892;47.794;19.126;2022-12-18T04:57:27;5.70;33.30
7700;DHT22;3892;47.794;19.126;2022-12-18T04:59:53;5.70;33.30
7700;DHT22;3892;47.794;19.126;2022-12-18T05:02:20;5.70;33.40
7700;DHT22;3892;47.794;19.126;2022-12-18T05:04:49;5.70;33.40
7700;DHT22;3892;47.794;19.126;2022-12-18T05:07:16;5.70;33.50
7700;DHT22;3892;47.794;19.126;2022-12-18T05:09:43;5.70;33.50
7700;DHT22;3892;47.794;19.126;2022-12-18T05:12:10;5.70;33.60
7700;DHT22;3892;47.794;19.126;2022-12-18T05:14:37;5.70;33.60
7700;DHT22;3892;47.794;19.126;2022-12-18T05:17:04;5.60;33.60
7700;DHT22;3892;47.794;19.126;2022-12-18T05:19:31;5.60;33.70
7700;DHT22;3892;47.794;19.126;2022-12-18T05:21:59;5.60;33.80
7700;DHT22;3892;47.794;19.126;2022-12-18T05:24:27;5.60;34.00
7700;DHT22;3892;47.794;19.126;2022-12-18T05:26:54;5.60;34.00
7700;DHT22;3892;47.794;19.126;2022-12-18T05:29:21;5.60;34.00
7700;DHT22;3892;47.794;19.126;2022-12-18T05:31:48;5.60;34.10
7700;DHT22;3892;47.794;19.126;2022-12-18T05:34:15;5.60;34.20
7700;DHT22;3892;47.794;19.126;2022-12-18T05:36:42;5.50;34.20
7700;DHT22;3892;47.794;19.126;2022-12-18T05:39:10;5.50;34.20
7700;DHT22;3892;47.794;19.126;2022-12-18T05:41:37;5.50;34.10
7700;DHT22;3892;47.794;19.126;2022-12-18T05:44:04;5.50;34.10
7700;DHT22;3892;47.794;19.126;2022-12-18T05:46:31;5.50;34.10
7700;DHT22;3892;47.794;19.126;2022-12-18T05:48:59;5.50;34.20
7700;DHT22;3892;47.794;19.126;2022-12-18T05:51:27;5.50;34.10
7700;DHT22;3892;47.794;19.126;2022-12-18T05:53:54;5.50;34.00
7700;DHT22;3892;47.794;19.126;2022-12-18T05:56:23;5.50;33.80
7700;DHT22;3892;47.794;19.126;2022-12-18T05:58:52;5.50;33.80
7700;DHT22;3892;47.794;19.126;2022-12-18T06:01:21;5.50;33.90
7700;DHT22;3892;47.794;19.126;2022-12-18T06:03:48;5.50;34.00
7700;DHT22;3892;47.794;19.126;2022-12-18T06:06:17;5.50;34.00
7700;DHT22;3892;47.794;19.126;2022-12-18T06:08:46;5.50;34.00
7700;DHT22;3892;47.794;19.126;2022-12-18T06:11:16;5.50;33.80
7700;DHT22;3892;47.794;19.126;2022-12-18T06:13:44;5.50;33.80
7700;DHT22;3892;47.794;19.126;2022-12-18T06:16:12;5.50;33.80
7700;DHT22;3892;47.794;19.126;2022-12-18T06:18:39;5.50;33.80
7700;DHT22;3892;47.794;19.126;2022-12-18T06:21:06;5.50;33.80
7700;DHT22;3892;47.794;19.126;2022-12-18T06:23:33;5.40;33.70
7700;DHT22;3892;47.794;19.126;2022-12-18T06:26:03;5.40;33.70
7700;DHT22;3892;47.794;19.126;2022-12-18T06:28:31;5.40;33.80
7700;DHT22;3892;47.794;19.126;2022-12-18T06:30:59;5.40;33.90
7700;DHT22;3892;47.794;19.126;2022-12-18T06:33:27;5.40;33.90
7700;DHT22;3892;47.794;19.126;2022-12-18T06:35:54;5.40;33.90
7700;DHT22;3892;47.794;19.126;2022-12-18T06:38:25;5.40;33.80
7700;DHT22;3892;47.794;19.126;2022-12-18T06:40:52;5.40;33.70
7700;DHT22;3892;47.794;19.126;2022-12-18T06:43:19;5.40;33.80
7700;DHT22;3892;47.794;19.126;2022-12-18T06:45:46;5.40;33.80
7700;DHT22;3892;47.794;19.126;2022-12-18T06:48:19;5.40;33.80
7700;DHT22;3892;47.794;19.126;2022-12-18T06:50:46;5.40;33.80
7700;DHT22;3892;47.794;19.126;2022-12-18T06:53:13;5.40;33.90
7700;DHT22;3892;47.794;19.126;2022-12-18T06:55:41;5.40;33.90
7700;DHT22;3892;47.794;19.126;2022-12-18T06:58:08;5.40;33.90
7700;DHT22;3892;47.794;19.126;2022-12-18T07:00:35;5.40;34.00
7700;DHT22;3892;47.794;19.126;2022-12-18T07:03:02;5.40;34.10
7700;DHT22;3892;47.794;19.126;2022-12-18T07:05:30;5.50;34.10
7700;DHT22;3892;47.794;19.126;2022-12-18T07:07:57;5.50;34.10
7700;DHT22;3892;47.794;19.126;2022-12-18T07:10:25;5.50;34.10
7700;DHT22;3892;47.794;19.126;2022-12-18T07:12:52;5.50;34.10
7700;DHT22;3892;47.794;19.126;2022-12-18T07:15:19;5.50;34.00
7700;DHT22;3892;47.794;19.126;2022-12-18T07:17:46;5.50;33.90
7700;DHT22;3892;47.794;19.126;2022-12-18T07:20:13;5.60;33.90
7700;DHT22;3892;47.794;19.126;2022-12-18T07:22:41;5.60;33.90
7700;DHT22;3892;47.794;19.126;2022-12-18T07:25:08;5.50;33.90
7700;DHT22;3892;47.794;19.126;2022-12-18T07:27:35;5.60;34.00
7700;DHT22;3892;47.794;19.126;2022-12-18T07:30:03;5.60;34.00
7700;DHT22;3892;47.794;19.126;2022-12-18T07:32:30;5.60;34.10
7700;DHT22;3892;47.794;19.126;2022-12-18T07:34:57;5.60;34.00
7700;DHT22;3892;47.794;19.126;2022-12-18T07:37:26;5.60;34.00
7700;DHT22;3892;47.794;19.126;2022-12-18T07:39:54;5.60;34.60
7700;DHT22;3892;47.794;19.126;2022-12-18T07:42:21;5.70;34.00
7700;DHT22;3892;47.794;19.126;2022-12-18T07:44:57;5.70;34.00
7700;DHT22;3892;47.794;19.126;2022-12-18T07:47:24;5.70;34.10
7700;DHT22;3892;47.794;19.126;2022-12-18T07:49:51;5.70;34.10
7700;DHT22;3892;47.794;19.126;2022-12-18T07:52:18;5.70;34.20
7700;DHT22;3892;47.794;19.126;2022-12-18T07:54:45;5.70;34.30
7700;DHT22;3892;47.794;19.126;2022-12-18T07:57:16;5.80;34.50
7700;DHT22;3892;47.794;19.126;2022-12-18T07:59:43;5.80;34.40
7700;DHT22;3892;47.794;19.126;2022-12-18T08:02:10;5.90;34.40
7700;DHT22;3892;47.794;19.126;2022-12-18T08:04:37;5.90;34.30
7700;DHT22;3892;47.794;19.126;2022-12-18T08:07:04;5.90;34.30
7700;DHT22;3892;47.794;19.126;2022-12-18T08:09:31;6.00;34.20
7700;DHT22;3892;47.794;19.126;2022-12-18T08:11:58;6.10;34.30
7700;DHT22;3892;47.794;19.126;2022-12-18T08:14:26;6.10;34.10
7700;DHT22;3892;47.794;19.126;2022-12-18T08:16:54;6.20;33.90
7700;DHT22;3892;47.794;19.126;2022-12-18T08:19:21;6.20;33.60
7700;DHT22;3892;47.794;19.126;2022-12-18T08:21:48;6.20;33.70
7700;DHT22;3892;47.794;19.126;2022-12-18T08:24:15;6.30;33.70
7700;DHT22;3892;47.794;19.126;2022-12-18T08:26:42;6.40;33.80
7700;DHT22;3892;47.794;19.126;2022-12-18T08:29:09;6.50;33.50
7700;DHT22;3892;47.794;19.126;2022-12-18T08:31:38;6.50;33.20
7700;DHT22;3892;47.794;19.126;2022-12-18T08:34:05;6.60;33.10
7700;DHT22;3892;47.794;19.126;2022-12-18T08:36:31;6.70;33.10
7700;DHT22;3892;47.794;19.126;2022-12-18T08:38:58;6.80;32.90
7700;DHT22;3892;47.794;19.126;2022-12-18T08:41:25;6.80;32.90
7700;DHT22;3892;47.794;19.126;2022-12-18T08:43:52;7.10;33.00
7700;DHT22;3892;47.794;19.126;2022-12-18T08:46:40;7.30;33.00
7700;DHT22;3892;47.794;19.126;2022-12-18T08:49:08;7.80;33.20
7700;DHT22;3892;47.794;19.126;2022-12-18T08:51:36;8.20;32.60
7700;DHT22;3892;47.794;19.126;2022-12-18T08:54:03;8.80;32.30
7700;DHT22;3892;47.794;19.126;2022-12-18T08:56:30;9.40;32.00
7700;DHT22;3892;47.794;19.126;2022-12-18T08:58:58;10.00;30.30
7700;DHT22;3892;47.794;19.126;2022-12-18T09:01:25;10.60;29.90
7700;DHT22;3892;47.794;19.126;2022-12-18T09:03:53;11.30;29.70
7700;DHT22;3892;47.794;19.126;2022-12-18T09:06:22;11.80;28.80
7700;DHT22;3892;47.794;19.126;2022-12-18T09:08:50;12.40;57.50
7700;DHT22;3892;47.794;19.126;2022-12-18T09:11:20;13.00;56.20
7700;DHT22;3892;47.794;19.126;2022-12-18T09:36:01;19.00;30.00
7700;DHT22;3892;47.794;19.126;2022-12-18T09:38:30;18.90;27.10
7700;DHT22;3892;47.794;19.126;2022-12-18T09:41:00;19.40;26.60
7700;DHT22;3892;47.794;19.126;2022-12-18T09:43:30;19.80;29.70
7700;DHT22;3892;47.794;19.126;2022-12-18T13:36:26;16.00;23.30
7700;DHT22;3892;47.794;19.126;2022-12-18T13:42:30;15.50;24.00
7700;DHT22;3892;47.794;19.126;2022-12-18T13:44:56;15.30;24.10
7700;DHT22;3892;47.794;19.126;2022-12-18T13:47:27;15.10;24.30
7700;DHT22;3892;47.794;19.126;2022-12-18T13:49:58;15.00;24.40
7700;DHT22;3892;47.794;19.126;2022-12-18T13:52:28;14.80;24.40
7700;DHT22;3892;47.794;19.126;2022-12-18T13:54:57;14.70;24.40
7700;DHT22;3892;47.794;19.126;2022-12-18T13:57:28;14.50;24.50
7700;DHT22;3892;47.794;19.126;2022-12-18T13:59:58;14.40;25.00
7700;DHT22;3892;47.794;19.126;2022-12-18T14:02:26;14.30;24.60
7700;DHT22;3892;47.794;19.126;2022-12-18T14:04:55;14.20;24.60
7700;DHT22;3892;47.794;19.126;2022-12-18T14:07:23;14.00;24.50
7700;DHT22;3892;47.794;19.126;2022-12-18T14:09:52;14.00;24.80
7700;DHT22;3892;47.794;19.126;2022-12-18T14:12:24;13.80;24.80
7700;DHT22;3892;47.794;19.126;2022-12-18T14:15:21;13.70;25.00
7700;DHT22;3892;47.794;19.126;2022-12-18T14:17:52;13.50;24.80
7700;DHT22;3892;47.794;19.126;2022-12-18T14:20:21;13.30;24.90
7700;DHT22;3892;47.794;19.126;2022-12-18T14:22:49;13.10;24.90
7700;DHT22;3892;47.794;19.126;2022-12-18T14:25:19;12.90;24.60
7700;DHT22;3892;47.794;19.126;2022-12-18T14:27:49;12.80;24.80
7700;DHT22;3892;47.794;19.126;2022-12-18T14:30:30;12.60;24.80
7700;DHT22;3892;47.794;19.126;2022-12-18T14:33:05;12.40;25.00
7700;DHT22;3892;47.794;19.126;2022-12-18T14:35:33;12.30;25.40
7700;DHT22;3892;47.794;19.126;2022-12-18T14:38:15;12.10;25.40
7700;DHT22;3892;47.794;19.126;2022-12-18T14:40:44;12.00;25.90
7700;DHT22;3892;47.794;19.126;2022-12-18T14:43:11;11.80;26.20
7700;DHT22;3892;47.794;19.126;2022-12-18T14:45:41;11.60;26.30
7700;DHT22;3892;47.794;19.126;2022-12-18T14:48:14;11.50;26.50
7700;DHT22;3892;47.794;19.126;2022-12-18T14:50:42;11.30;27.00
7700;DHT22;3892;47.794;19.126;2022-12-18T14:53:20;11.20;27.30
7700;DHT22;3892;47.794;19.126;2022-12-18T14:55:49;11.10;27.20
7700;DHT22;3892;47.794;19.126;2022-12-18T14:58:17;11.00;27.10
7700;DHT22;3892;47.794;19.126;2022-12-18T15:00:46;10.90;27.00
7700;DHT22;3892;47.794;19.126;2022-12-18T15:03:18;10.80;27.20
7700;DHT22;3892;47.794;19.126;2022-12-18T15:05:45;10.70;27.60
7700;DHT22;3892;47.794;19.126;2022-12-18T15:08:31;10.60;27.70
7700;DHT22;3892;47.794;19.126;2022-12-18T15:11:00;10.50;27.90
7700;DHT22;3892;47.794;19.126;2022-12-18T15:13:27;10.40;28.10
7700;DHT22;3892;47.794;19.126;2022-12-18T15:15:57;10.30;28.10
7700;DHT22;3892;47.794;19.126;2022-12-18T15:18:31;10.20;28.20
7700;DHT22;3892;47.794;19.126;2022-12-18T15:21:07;10.10;28.40
7700;DHT22;3892;47.794;19.126;2022-12-18T15:23:36;10.10;28.40
7700;DHT22;3892;47.794;19.126;2022-12-18T15:26:06;10.00;28.30
7700;DHT22;3892;47.794;19.126;2022-12-18T15:28:36;9.90;28.90
7700;DHT22;3892;47.794;19.126;2022-12-18T15:31:17;9.80;29.10
7700;DHT22;3892;47.794;19.126;2022-12-18T15:34:04;9.70;29.30
7700;DHT22;3892;47.794;19.126;2022-12-18T15:36:32;9.60;29.30
7700;DHT22;3892;47.794;19.126;2022-12-18T15:39:02;9.50;29.30
7700;DHT22;3892;47.794;19.126;2022-12-18T15:41:31;9.40;29.30
7700;DHT22;3892;47.794;19.126;2022-12-18T15:43:59;9.40;29.40
7700;DHT22;3892;47.794;19.126;2022-12-18T15:46:27;9.30;29.50
7700;DHT22;3892;47.794;19.126;2022-12-18T15:48:55;9.20;29.40
7700;DHT22;3892;47.794;19.126;2022-12-18T15:51:23;9.20;29.50
7700;DHT22;3892;47.794;19.126;2022-12-18T15:53:53;9.20;29.60
7700;DHT22;3892;47.794;19.126;2022-12-18T15:56:21;9.10;29.70
7700;DHT22;3892;47.794;19.126;2022-12-18T15:59:08;9.00;29.80
7700;DHT22;3892;47.794;19.126;2022-12-18T16:01:39;8.90;29.80
7700;DHT22;3892;47.794;19.126;2022-12-18T16:04:06;8.80;29.90
7700;DHT22;3892;47.794;19.126;2022-12-18T16:06:33;8.70;30.00
7700;DHT22;3892;47.794;19.126;2022-12-18T16:09:00;8.70;29.90
7700;DHT22;3892;47.794;19.126;2022-12-18T16:11:28;8.70;29.90
7700;DHT22;3892;47.794;19.126;2022-12-18T16:14:11;8.60;29.80
7700;DHT22;3892;47.794;19.126;2022-12-18T16:16:40;8.60;29.90
7700;DHT22;3892;47.794;19.126;2022-12-18T16:19:08;8.60;30.00
7700;DHT22;3892;47.794;19.126;2022-12-18T16:21:35;8.50;30.00
7700;DHT22;3892;47.794;19.126;2022-12-18T16:24:02;8.40;29.90
7700;DHT22;3892;47.794;19.126;2022-12-18T16:26:29;8.40;30.00
7700;DHT22;3892;47.794;19.126;2022-12-18T16:28:57;8.40;30.10
7700;DHT22;3892;47.794;19.126;2022-12-18T16:31:25;8.30;30.20
7700;DHT22;3892;47.794;19.126;2022-12-18T16:34:11;8.30;30.20
7700;DHT22;3892;47.794;19.126;2022-12-18T16:36:38;8.30;30.20
7700;DHT22;3892;47.794;19.126;2022-12-18T16:39:05;8.20;30.00
7700;DHT22;3892;47.794;19.126;2022-12-18T16:41:32;8.20;30.10
7700;DHT22;3892;47.794;19.126;2022-12-18T16:44:01;8.20;30.20
7700;DHT22;3892;47.794;19.126;2022-12-18T16:46:28;8.20;30.20
7700;DHT22;3892;47.794;19.126;2022-12-18T16:48:57;8.10;30.30
7700;DHT22;3892;47.794;19.126;2022-12-18T16:51:26;8.10;30.90
7700;DHT22;3892;47.794;19.126;2022-12-18T16:53:54;8.10;30.20
7700;DHT22;3892;47.794;19.126;2022-12-18T16:56:21;8.00;30.30
7700;DHT22;3892;47.794;19.126;2022-12-18T16:58:50;8.00;30.40
7700;DHT22;3892;47.794;19.126;2022-12-18T17:01:18;8.00;30.40
7700;DHT22;3892;47.794;19.126;2022-12-18T17:03:50;7.90;30.20
7700;DHT22;3892;47.794;19.126;2022-12-18T17:06:18;7.90;30.30
7700;DHT22;3892;47.794;19.126;2022-12-18T17:08:46;7.90;30.40
7700;DHT22;3892;47.794;19.126;2022-12-18T17:11:13;7.80;30.30
7700;DHT22;3892;47.794;19.126;2022-12-18T17:13:40;7.80;30.20
7700;DHT22;3892;47.794;19.126;2022-12-18T17:16:08;7.80;30.30
7700;DHT22;3892;47.794;19.126;2022-12-18T17:18:36;7.80;30.30
7700;DHT22;3892;47.794;19.126;2022-12-18T17:21:04;7.70;30.20
7700;DHT22;3892;47.794;19.126;2022-12-18T17:23:32;7.60;30.20
7700;DHT22;3892;47.794;19.126;2022-12-18T17:26:02;7.60;30.40
7700;DHT22;3892;47.794;19.126;2022-12-18T17:28:29;7.60;30.50
7700;DHT22;3892;47.794;19.126;2022-12-18T17:30:56;7.50;30.80
7700;DHT22;3892;47.794;19.126;2022-12-18T17:33:24;7.40;31.10
7700;DHT22;3892;47.794;19.126;2022-12-18T17:35:51;7.30;31.40
7700;DHT22;3892;47.794;19.126;2022-12-18T17:38:18;7.10;31.60
7700;DHT22;3892;47.794;19.126;2022-12-18T17:40:45;7.00;32.00
7700;DHT22;3892;47.794;19.126;2022-12-18T17:43:13;6.90;32.30
7700;DHT22;3892;47.794;19.126;2022-12-18T17:45:40;6.70;32.40
7700;DHT22;3892;47.794;19.126;2022-12-18T17:48:08;6.60;32.60
7700;DHT22;3892;47.794;19.126;2022-12-18T17:50:36;6.60;32.80
7700;DHT22;3892;47.794;19.126;2022-12-18T17:53:03;6.60;32.80
7700;DHT22;3892;47.794;19.126;2022-12-18T17:55:30;6.70;32.80
7700;DHT22;3892;47.794;19.126;2022-12-18T17:57:57;6.80;32.80
7700;DHT22;3892;47.794;19.126;2022-12-18T18:00:25;6.90;32.70
7700;DHT22;3892;47.794;19.126;2022-12-18T18:02:54;6.90;32.40
7700;DHT22;3892;47.794;19.126;2022-12-18T18:05:21;7.00;32.20
7700;DHT22;3892;47.794;19.126;2022-12-18T18:07:48;7.00;32.20
7700;DHT22;3892;47.794;19.126;2022-12-18T18:10:15;7.10;32.20
7700;DHT22;3892;47.794;19.126;2022-12-18T18:12:42;7.10;32.00
7700;DHT22;3892;47.794;19.126;2022-12-18T18:15:28;7.10;32.00
7700;DHT22;3892;47.794;19.126;2022-12-18T18:17:55;7.20;31.90
7700;DHT22;3892;47.794;19.126;2022-12-18T18:20:22;7.20;31.70
7700;DHT22;3892;47.794;19.126;2022-12-18T18:22:49;7.20;31.60
7700;DHT22;3892;47.794;19.126;2022-12-18T18:25:16;7.20;31.50
7700;DHT22;3892;47.794;19.126;2022-12-18T18:27:43;7.20;31.40
7700;DHT22;3892;47.794;19.126;2022-12-18T18:30:11;7.20;31.40
7700;DHT22;3892;47.794;19.126;2022-12-18T18:32:39;7.20;31.40
7700;DHT22;3892;47.794;19.126;2022-12-18T18:35:07;7.10;31.10
7700;DHT22;3892;47.794;19.126;2022-12-18T18:37:34;7.10;31.30
7700;DHT22;3892;47.794;19.126;2022-12-18T18:40:01;7.00;31.20
7700;DHT22;3892;47.794;19.126;2022-12-18T18:42:29;7.00;31.30
7700;DHT22;3892;47.794;19.126;2022-12-18T18:44:56;6.90;31.20
7700;DHT22;3892;47.794;19.126;2022-12-18T18:47:22;6.90;31.20
7700;DHT22;3892;47.794;19.126;2022-12-18T18:49:51;6.90;31.20
7700;DHT22;3892;47.794;19.126;2022-12-18T18:52:18;6.90;31.20
7700;DHT22;3892;47.794;19.126;2022-12-18T18:54:46;6.90;31.00
7700;DHT22;3892;47.794;19.126;2022-12-18T18:57:14;6.80;30.80
7700;DHT22;3892;47.794;19.126;2022-12-18T18:59:41;6.80;30.70
7700;DHT22;3892;47.794;19.126;2022-12-18T19:02:10;6.70;30.70
7700;DHT22;3892;47.794;19.126;2022-12-18T19:04:38;6.70;30.80
7700;DHT22;3892;47.794;19.126;2022-12-18T19:07:07;6.70;30.90
7700;DHT22;3892;47.794;19.126;2022-12-18T19:09:35;6.70;31.00
7700;DHT22;3892;47.794;19.126;2022-12-18T19:12:02;6.60;30.90
7700;DHT22;3892;47.794;19.126;2022-12-18T19:14:47;6.60;30.90
7700;DHT22;3892;47.794;19.126;2022-12-18T19:17:14;6.50;31.00
7700;DHT22;3892;47.794;19.126;2022-12-18T19:19:41;6.50;30.80
7700;DHT22;3892;47.794;19.126;2022-12-18T19:22:09;6.50;30.80
7700;DHT22;3892;47.794;19.126;2022-12-18T19:24:37;6.40;30.90
7700;DHT22;3892;47.794;19.126;2022-12-18T19:27:04;6.40;30.90
7700;DHT22;3892;47.794;19.126;2022-12-18T19:29:31;6.40;31.00
7700;DHT22;3892;47.794;19.126;2022-12-18T19:31:58;6.40;31.00
7700;DHT22;3892;47.794;19.126;2022-12-18T19:34:25;6.30;31.00
7700;DHT22;3892;47.794;19.126;2022-12-18T19:36:52;6.30;31.30
7700;DHT22;3892;47.794;19.126;2022-12-18T19:39:20;6.30;31.20
7700;DHT22;3892;47.794;19.126;2022-12-18T19:41:47;6.20;31.00
7700;DHT22;3892;47.794;19.126;2022-12-18T19:44:16;6.20;31.00
7700;DHT22;3892;47.794;19.126;2022-12-18T19:46:43;6.20;31.00
7700;DHT22;3892;47.794;19.126;2022-12-18T19:49:12;6.20;31.00
7700;DHT22;3892;47.794;19.126;2022-12-18T19:51:39;6.10;31.10
7700;DHT22;3892;47.794;19.126;2022-12-18T19:54:07;6.10;31.30
7700;DHT22;3892;47.794;19.126;2022-12-18T19:56:35;6.10;31.50
7700;DHT22;3892;47.794;19.126;2022-12-18T19:59:03;6.00;32.00
7700;DHT22;3892;47.794;19.126;2022-12-18T20:01:30;5.90;32.40
7700;DHT22;3892;47.794;19.126;2022-12-18T20:03:58;5.90;32.60
7700;DHT22;3892;47.794;19.126;2022-12-18T20:06:26;5.90;32.60
7700;DHT22;3892;47.794;19.126;2022-12-18T20:08:55;5.90;32.70
7700;DHT22;3892;47.794;19.126;2022-12-18T20:11:22;6.00;32.80
7700;DHT22;3892;47.794;19.126;2022-12-18T20:13:51;6.00;32.60
7700;DHT22;3892;47.794;19.126;2022-12-18T20:16:18;6.00;32.70
7700;DHT22;3892;47.794;19.126;2022-12-18T20:18:45;6.00;32.60
7700;DHT22;3892;47.794;19.126;2022-12-18T20:21:12;6.00;32.40
7700;DHT22;3892;47.794;19.126;2022-12-18T20:23:39;6.00;32.50
7700;DHT22;3892;47.794;19.126;2022-12-18T20:26:06;6.00;33.80
7700;DHT22;3892;47.794;19.126;2022-12-18T20:28:32;6.00;32.30